sensor_id;sensor_type;location;lat;lon;timestamp;temperature;humidity
6186;DHT22;3126;52.738;8.316;2024-03-29T00:04:02;7.50;99.90
6186;DHT22;3126;52.738;8.316;2024-03-29T00:09:03;7.50;99.90
6186;DHT22;3126;52.738;8.316;2024-03-29T00:14:03;7.40;99.90
6186;DHT22;3126;52.738;8.316;2024-03-29T00:19:04;7.30;99.90
6186;DHT22;3126;52.738;8.316;2024-03-29T00:44:11;8.00;99.90
6186;DHT22;3126;52.738;8.316;2024-03-29T00:49:12;7.40;99.90
6186;DHT22;3126;52.738;8.316;2024-03-29T01:24:19;7.20;99.90
6186;DHT22;3126;52.738;8.316;2024-03-29T01:29:19;7.00;99.90
6186;DHT22;3126;52.738;8.316;2024-03-29T01:39:21;7.00;99.90
6186;DHT22;3126;52.738;8.316;2024-03-29T02:09:32;6.90;99.90
6186;DHT22;3126;52.738;8.316;2024-03-29T02:14:32;6.90;99.90
6186;DHT22;3126;52.738;8.316;2024-03-29T02:59:44;6.90;99.90
6186;DHT22;3126;52.738;8.316;2024-03-29T03:04:45;6.80;99.90
6186;DHT22;3126;52.738;8.316;2024-03-29T03:09:46;6.80;99.90
6186;DHT22;3126;52.738;8.316;2024-03-29T03:15:05;6.80;99.90
6186;DHT22;3126;52.738;8.316;2024-03-29T03:20:06;6.90;99.90
6186;DHT22;3126;52.738;8.316;2024-03-29T03:25:09;6.80;99.90
6186;DHT22;3126;52.738;8.316;2024-03-29T03:30:10;6.80;99.90
6186;DHT22;3126;52.738;8.316;2024-03-29T03:35:11;6.80;99.90
6186;DHT22;3126;52.738;8.316;2024-03-29T03:40:11;6.80;99.90
6186;DHT22;3126;52.738;8.316;2024-03-29T03:45:12;6.80;99.90
6186;DHT22;3126;52.738;8.316;2024-03-29T03:50:13;6.90;99.90
6186;DHT22;3126;52.738;8.316;2024-03-29T03:55:14;7.00;99.90
6186;DHT22;3126;52.738;8.316;2024-03-29T04:00:17;7.00;99.90
6186;DHT22;3126;52.738;8.316;2024-03-29T04:05:19;7.10;99.90
6186;DHT22;3126;52.738;8.316;2024-03-29T04:10:19;7.10;99.90
6186;DHT22;3126;52.738;8.316;2024-03-29T04:15:20;7.10;99.90
6186;DHT22;3126;52.738;8.316;2024-03-29T04:20:20;7.20;99.90
6186;DHT22;3126;52.738;8.316;2024-03-29T04:25:21;7.30;99.80
6186;DHT22;3126;52.738;8.316;2024-03-29T04:30:21;7.30;99.30
6186;DHT22;3126;52.738;8.316;2024-03-29T04:35:22;7.40;99.00
6186;DHT22;3126;52.738;8.316;2024-03-29T04:40:22;7.40;99.30
6186;DHT22;3126;52.738;8.316;2024-03-29T07:46:21;7.50;98.90
6186;DHT22;3126;52.738;8.316;2024-03-29T07:51:22;8.40;99.90
6186;DHT22;3126;52.738;8.316;2024-03-29T07:56:23;8.60;99.90
6186;DHT22;3126;52.738;8.316;2024-03-29T08:01:25;8.70;99.90
6186;DHT22;3126;52.738;8.316;2024-03-29T08:06:25;8.70;99.90
6186;DHT22;3126;52.738;8.316;2024-03-29T08:11:26;8.70;99.90
6186;DHT22;3126;52.738;8.316;2024-03-29T08:26:29;8.80;99.90
6186;DHT22;3126;52.738;8.316;2024-03-29T08:31:29;9.00;99.90
6186;DHT22;3126;52.738;8.316;2024-03-29T08:36:30;8.80;99.90
6186;DHT22;3126;52.738;8.316;2024-03-29T08:41:31;8.70;99.90
6186;DHT22;3126;52.738;8.316;2024-03-29T08:46:31;8.60;99.90
6186;DHT22;3126;52.738;8.316;2024-03-29T08:51:32;8.50;99.90
6186;DHT22;3126;52.738;8.316;2024-03-29T08:56:32;8.50;99.90
6186;DHT22;3126;52.738;8.316;2024-03-29T09:01:41;8.50;99.90
6186;DHT22;3126;52.738;8.316;2024-03-29T09:06:42;8.60;99.90
6186;DHT22;3126;52.738;8.316;2024-03-29T09:11:43;8.70;99.90
6186;DHT22;3126;52.738;8.316;2024-03-29T09:16:43;8.90;99.90
6186;DHT22;3126;52.738;8.316;2024-03-29T09:21:44;9.20;99.90
6186;DHT22;3126;52.738;8.316;2024-03-29T09:26:45;9.50;99.90
6186;DHT22;3126;52.738;8.316;2024-03-29T09:51:51;9.70;99.90
6186;DHT22;3126;52.738;8.316;2024-03-29T10:06:56;10.40;99.90
6186;DHT22;3126;52.738;8.316;2024-03-29T10:11:56;11.60;99.90
6186;DHT22;3126;52.738;8.316;2024-03-29T10:16:58;11.90;99.90
6186;DHT22;3126;52.738;8.316;2024-03-29T10:22:06;12.10;99.90
6186;DHT22;3126;52.738;8.316;2024-03-29T10:27:07;12.30;99.90
6186;DHT22;3126;52.738;8.316;2024-03-29T10:32:08;12.40;99.90
6186;DHT22;3126;52.738;8.316;2024-03-29T10:37:09;12.30;99.40
6186;DHT22;3126;52.738;8.316;2024-03-29T10:42:12;12.20;99.90
6186;DHT22;3126;52.738;8.316;2024-03-29T10:47:18;12.00;99.90
6186;DHT22;3126;52.738;8.316;2024-03-29T10:52:21;12.00;99.90
6186;DHT22;3126;52.738;8.316;2024-03-29T10:57:26;12.00;99.90
6186;DHT22;3126;52.738;8.316;2024-03-29T11:13:12;12.40;99.90
6186;DHT22;3126;52.738;8.316;2024-03-29T12:18:48;13.00;96.70
6186;DHT22;3126;52.738;8.316;2024-03-29T12:23:49;14.40;89.60
6186;DHT22;3126;52.738;8.316;2024-03-29T12:28:50;14.20;91.10
6186;DHT22;3126;52.738;8.316;2024-03-29T12:38:55;14.00;90.20
6186;DHT22;3126;52.738;8.316;2024-03-29T13:04:06;13.90;92.90
6186;DHT22;3126;52.738;8.316;2024-03-29T13:14:08;14.50;94.30
6186;DHT22;3126;52.738;8.316;2024-03-29T13:19:09;14.90;92.50
6186;DHT22;3126;52.738;8.316;2024-03-29T13:24:10;14.70;87.80
6186;DHT22;3126;52.738;8.316;2024-03-29T13:29:10;14.50;87.70
6186;DHT22;3126;52.738;8.316;2024-03-29T13:34:13;14.20;89.70
6186;DHT22;3126;52.738;8.316;2024-03-29T13:39:14;14.50;86.70
6186;DHT22;3126;52.738;8.316;2024-03-29T13:44:16;14.60;85.80
6186;DHT22;3126;52.738;8.316;2024-03-29T13:49:17;14.80;85.70
6186;DHT22;3126;52.738;8.316;2024-03-29T13:54:21;14.80;86.80
6186;DHT22;3126;52.738;8.316;2024-03-29T13:59:22;15.10;85.80
6186;DHT22;3126;52.738;8.316;2024-03-29T18:00:33;15.10;84.50
6186;DHT22;3126;52.738;8.316;2024-03-29T18:05:34;13.40;99.90
6186;DHT22;3126;52.738;8.316;2024-03-29T18:10:35;13.30;99.90
6186;DHT22;3126;52.738;8.316;2024-03-29T18:15:35;13.20;99.90
6186;DHT22;3126;52.738;8.316;2024-03-29T18:20:39;13.20;99.90
6186;DHT22;3126;52.738;8.316;2024-03-29T18:25:40;13.10;99.90
6186;DHT22;3126;52.738;8.316;2024-03-29T18:30:41;13.00;99.90
6186;DHT22;3126;52.738;8.316;2024-03-29T18:35:41;13.00;99.90
6186;DHT22;3126;52.738;8.316;2024-03-29T18:40:42;12.90;99.90
6186;DHT22;3126;52.738;8.316;2024-03-29T18:45:42;12.90;99.90
6186;DHT22;3126;52.738;8.316;2024-03-29T18:50:43;12.90;99.90
6186;DHT22;3126;52.738;8.316;2024-03-29T18:55:59;12.80;99.90
6186;DHT22;3126;52.738;8.316;2024-03-29T19:01:00;12.70;99.90
6186;DHT22;3126;52.738;8.316;2024-03-29T19:06:01;12.60;99.90
6186;DHT22;3126;52.738;8.316;2024-03-29T19:11:01;12.60;99.90
6186;DHT22;3126;52.738;8.316;2024-03-29T19:16:02;12.50;99.90
6186;DHT22;3126;52.738;8.316;2024-03-29T19:21:04;12.50;99.90
6186;DHT22;3126;52.738;8.316;2024-03-29T19:26:04;12.40;99.90
6186;DHT22;3126;52.738;8.316;2024-03-29T19:31:05;12.30;99.90
6186;DHT22;3126;52.738;8.316;2024-03-29T19:36:06;12.20;99.90
6186;DHT22;3126;52.738;8.316;2024-03-29T20:16:15;12.10;99.90
6186;DHT22;3126;52.738;8.316;2024-03-29T20:21:15;11.70;99.90
6186;DHT22;3126;52.738;8.316;2024-03-29T20:26:16;11.60;99.90
6186;DHT22;3126;52.738;8.316;2024-03-29T21:16:44;11.60;99.90
6186;DHT22;3126;52.738;8.316;2024-03-29T21:21:45;11.50;99.90
6186;DHT22;3126;52.738;8.316;2024-03-29T21:26:45;11.40;99.90
6186;DHT22;3126;52.738;8.316;2024-03-29T21:31:46;11.40;99.90
6186;DHT22;3126;52.738;8.316;2024-03-29T21:36:47;11.40;99.90
6186;DHT22;3126;52.738;8.316;2024-03-29T21:41:48;11.40;99.90
6186;DHT22;3126;52.738;8.316;2024-03-29T21:46:49;11.40;99.90
6186;DHT22;3126;52.738;8.316;2024-03-29T21:51:49;11.40;99.90
6186;DHT22;3126;52.738;8.316;2024-03-29T22:11:54;11.40;99.90
6186;DHT22;3126;52.738;8.316;2024-03-29T22:16:55;11.30;99.90
6186;DHT22;3126;52.738;8.316;2024-03-29T22:21:55;11.30;99.90
6186;DHT22;3126;52.738;8.316;2024-03-29T22:26:57;11.20;99.90
6186;DHT22;3126;52.738;8.316;2024-03-29T23:02:07;11.20;99.90
6186;DHT22;3126;52.738;8.316;2024-03-29T23:07:08;10.90;99.90
6186;DHT22;3126;52.738;8.316;2024-03-29T23:12:12;10.80;99.90
6186;DHT22;3126;52.738;8.316;2024-03-29T23:17:12;10.80;99.90
6186;DHT22;3126;52.738;8.316;2024-03-29T23:22:14;10.90;99.90
6186;DHT22;3126;52.738;8.316;2024-03-29T23:27:15;10.90;99.90
6186;DHT22;3126;52.738;8.316;2024-03-29T23:32:15;10.90;99.90
6186;DHT22;3126;52.738;8.316;2024-03-29T23:37:16;10.90;99.90
6186;DHT22;3126;52.738;8.316;2024-03-29T23:42:18;10.90;99.90
6186;DHT22;3126;52.738;8.316;2024-03-29T23:47:19;10.90;99.90
6186;DHT22;3126;52.738;8.316;2024-03-29T23:52:19;10.80;99.90
6186;DHT22;3126;52.738;8.316;2024-03-29T23:57:20;10.80;99.90
